METAR AND TAF INFORMATION
METAR FOR TDPD
ADDS - METARS form results

(0958 UTC 24 May 2019)
Data provider http://aviationweather.gov/metar/data/
 
Forecast for: TDPD (MELVILLE HALL AR, DM)
Text: TAF TDPD 232300Z 2400/2424 13008KT 9999 SCT020
Forecast period: 0000 UTC 24 May 2019 to 0000 UTC 25 May 2019
Forecast type: FROM: standard forecast or significant change
Winds: from the SE (130 degrees) at 9 MPH (8 knots; 4.1 m/s)
Visibility: 6 or more miles 10+ km)
Ceiling: at least 12,000 feet AGL
Clouds: scattered clouds at 2000 feet AGL
Weather: no significant weather forecast for this period
Text: TEMPO 2402/2406 5000 SHRA BKN014
Forecast period: 0200 to 0600 UTC 24 May 2019
Forecast type: TEMPORARY: The following changes expected for less than half the time period
Visibility: 3 miles (5 km)
Ceiling: 1400 feet AGL
Clouds: broken clouds at 1400 feet AGL
Weather: SHRA  (rain showers)

 AIRPORT MAP

 RUNWAY INFORMATION
Runway 09 Runway length 4777 ft Runway width 148 ft
Runway elevation 71 ft Runway displaced threshold 174 ft Runway heading 70
Runway 27 Runway length 4777 ft Runway width 148 ft
Runway elevation 14 ft Runway displaced threshold 0 ft Runway heading 250

 AIRPORT FREQUENCIES
Type TWR Name TWR Frequency 118.9 MHZ

 AIRPORT NEAR NAVIGATION AIDS
Type NDB Name Melville Hall Frequency 273 KHZ



Powered by Virtual Airlines Manager [v2.6.2]